sensor_id;sensor_type;location;lat;lon;timestamp;P1;durP1;ratioP1;P2;durP2;ratioP2
76896;SDS011;65856;52.178;21.176;2022-12-29T00:01:08;9.80;;;4.90;;
76896;SDS011;65856;52.178;21.176;2022-12-29T00:03:36;11.00;;;5.10;;
76896;SDS011;65856;52.178;21.176;2022-12-29T00:06:04;11.50;;;4.80;;
76896;SDS011;65856;52.178;21.176;2022-12-29T00:08:32;8.30;;;4.60;;
76896;SDS011;65856;52.178;21.176;2022-12-29T00:11:07;7.50;;;4.40;;
76896;SDS011;65856;52.178;21.176;2022-12-29T00:13:36;8.70;;;4.30;;
76896;SDS011;65856;52.178;21.176;2022-12-29T00:16:22;8.90;;;4.80;;
76896;SDS011;65856;52.178;21.176;2022-12-29T00:18:51;9.30;;;4.50;;
76896;SDS011;65856;52.178;21.176;2022-12-29T00:21:20;7.70;;;4.40;;
76896;SDS011;65856;52.178;21.176;2022-12-29T00:24:13;7.90;;;4.20;;
76896;SDS011;65856;52.178;21.176;2022-12-29T00:27:11;10.00;;;4.20;;
76896;SDS011;65856;52.178;21.176;2022-12-29T00:29:58;9.50;;;4.60;;
76896;SDS011;65856;52.178;21.176;2022-12-29T00:32:58;7.60;;;4.10;;
76896;SDS011;65856;52.178;21.176;2022-12-29T00:35:47;9.60;;;4.40;;
76896;SDS011;65856;52.178;21.176;2022-12-29T00:38:21;9.40;;;4.70;;
76896;SDS011;65856;52.178;21.176;2022-12-29T00:41:08;10.30;;;4.30;;
76896;SDS011;65856;52.178;21.176;2022-12-29T00:43:54;10.50;;;4.80;;
76896;SDS011;65856;52.178;21.176;2022-12-29T00:46:37;10.30;;;3.90;;
76896;SDS011;65856;52.178;21.176;2022-12-29T00:49:07;8.50;;;4.70;;
76896;SDS011;65856;52.178;21.176;2022-12-29T00:51:56;10.20;;;4.70;;
76896;SDS011;65856;52.178;21.176;2022-12-29T00:54:26;6.90;;;3.80;;
76896;SDS011;65856;52.178;21.176;2022-12-29T00:56:55;8.70;;;4.00;;
76896;SDS011;65856;52.178;21.176;2022-12-29T00:59:23;9.30;;;4.20;;
76896;SDS011;65856;52.178;21.176;2022-12-29T01:01:53;9.50;;;4.20;;
76896;SDS011;65856;52.178;21.176;2022-12-29T01:04:24;7.60;;;4.40;;
76896;SDS011;65856;52.178;21.176;2022-12-29T01:06:53;9.50;;;4.00;;
76896;SDS011;65856;52.178;21.176;2022-12-29T01:09:21;8.20;;;4.00;;
76896;SDS011;65856;52.178;21.176;2022-12-29T01:12:09;9.60;;;4.40;;
76896;SDS011;65856;52.178;21.176;2022-12-29T01:14:37;7.70;;;3.90;;
76896;SDS011;65856;52.178;21.176;2022-12-29T01:17:06;9.00;;;4.20;;
76896;SDS011;65856;52.178;21.176;2022-12-29T01:19:34;8.70;;;4.10;;
76896;SDS011;65856;52.178;21.176;2022-12-29T01:22:02;10.20;;;3.90;;
76896;SDS011;65856;52.178;21.176;2022-12-29T01:24:31;9.30;;;4.10;;
76896;SDS011;65856;52.178;21.176;2022-12-29T01:26:59;7.50;;;3.90;;
76896;SDS011;65856;52.178;21.176;2022-12-29T01:29:27;9.30;;;4.20;;
76896;SDS011;65856;52.178;21.176;2022-12-29T01:31:55;8.10;;;4.00;;
76896;SDS011;65856;52.178;21.176;2022-12-29T01:34:23;7.80;;;3.80;;
76896;SDS011;65856;52.178;21.176;2022-12-29T01:36:51;8.30;;;4.30;;
76896;SDS011;65856;52.178;21.176;2022-12-29T01:39:20;8.80;;;3.90;;
76896;SDS011;65856;52.178;21.176;2022-12-29T01:41:48;7.50;;;3.90;;
76896;SDS011;65856;52.178;21.176;2022-12-29T01:44:47;10.60;;;4.40;;
76896;SDS011;65856;52.178;21.176;2022-12-29T01:47:22;8.30;;;3.60;;
76896;SDS011;65856;52.178;21.176;2022-12-29T01:50:04;7.80;;;4.00;;
76896;SDS011;65856;52.178;21.176;2022-12-29T01:52:38;7.50;;;3.50;;
76896;SDS011;65856;52.178;21.176;2022-12-29T01:55:12;6.10;;;3.10;;
76896;SDS011;65856;52.178;21.176;2022-12-29T01:57:44;8.70;;;4.00;;
76896;SDS011;65856;52.178;21.176;2022-12-29T02:00:17;8.10;;;3.90;;
76896;SDS011;65856;52.178;21.176;2022-12-29T02:02:49;7.10;;;4.00;;
76896;SDS011;65856;52.178;21.176;2022-12-29T02:05:24;9.30;;;4.00;;
76896;SDS011;65856;52.178;21.176;2022-12-29T02:07:55;7.60;;;3.60;;
76896;SDS011;65856;52.178;21.176;2022-12-29T02:10:25;7.50;;;3.70;;
76896;SDS011;65856;52.178;21.176;2022-12-29T02:12:57;8.20;;;4.00;;
76896;SDS011;65856;52.178;21.176;2022-12-29T02:15:34;6.60;;;3.40;;
76896;SDS011;65856;52.178;21.176;2022-12-29T02:18:22;7.90;;;3.50;;
76896;SDS011;65856;52.178;21.176;2022-12-29T02:24:31;6.80;;;3.10;;
76896;SDS011;65856;52.178;21.176;2022-12-29T02:27:34;8.50;;;3.30;;
76896;SDS011;65856;52.178;21.176;2022-12-29T02:30:37;13.90;;;4.00;;
76896;SDS011;65856;52.178;21.176;2022-12-29T02:33:18;6.70;;;3.20;;
76896;SDS011;65856;52.178;21.176;2022-12-29T02:35:59;6.10;;;3.20;;
76896;SDS011;65856;52.178;21.176;2022-12-29T02:38:47;7.10;;;3.60;;
76896;SDS011;65856;52.178;21.176;2022-12-29T02:41:23;7.80;;;3.70;;
76896;SDS011;65856;52.178;21.176;2022-12-29T02:44:01;6.90;;;3.60;;
76896;SDS011;65856;52.178;21.176;2022-12-29T02:46:44;8.70;;;3.70;;
76896;SDS011;65856;52.178;21.176;2022-12-29T02:49:19;6.40;;;2.90;;
76896;SDS011;65856;52.178;21.176;2022-12-29T02:51:56;6.70;;;3.40;;
76896;SDS011;65856;52.178;21.176;2022-12-29T02:54:28;6.20;;;3.40;;
76896;SDS011;65856;52.178;21.176;2022-12-29T02:57:14;6.80;;;3.60;;
76896;SDS011;65856;52.178;21.176;2022-12-29T02:59:58;9.00;;;3.70;;
76896;SDS011;65856;52.178;21.176;2022-12-29T03:02:42;7.20;;;3.00;;
76896;SDS011;65856;52.178;21.176;2022-12-29T03:05:38;8.20;;;3.10;;
76896;SDS011;65856;52.178;21.176;2022-12-29T03:08:22;6.40;;;3.50;;
76896;SDS011;65856;52.178;21.176;2022-12-29T03:11:00;7.30;;;3.50;;
76896;SDS011;65856;52.178;21.176;2022-12-29T03:13:33;6.90;;;3.70;;
76896;SDS011;65856;52.178;21.176;2022-12-29T03:16:39;6.10;;;3.70;;
76896;SDS011;65856;52.178;21.176;2022-12-29T03:19:16;7.10;;;3.50;;
76896;SDS011;65856;52.178;21.176;2022-12-29T03:21:54;7.90;;;3.50;;
76896;SDS011;65856;52.178;21.176;2022-12-29T03:24:45;7.20;;;3.20;;
76896;SDS011;65856;52.178;21.176;2022-12-29T03:27:20;5.80;;;3.10;;
76896;SDS011;65856;52.178;21.176;2022-12-29T03:29:54;6.50;;;3.40;;
76896;SDS011;65856;52.178;21.176;2022-12-29T03:32:28;7.10;;;3.60;;
76896;SDS011;65856;52.178;21.176;2022-12-29T03:34:59;5.70;;;2.90;;
76896;SDS011;65856;52.178;21.176;2022-12-29T03:37:32;6.40;;;3.50;;
76896;SDS011;65856;52.178;21.176;2022-12-29T03:40:06;7.10;;;3.70;;
76896;SDS011;65856;52.178;21.176;2022-12-29T03:42:36;6.80;;;3.70;;
76896;SDS011;65856;52.178;21.176;2022-12-29T03:45:08;9.00;;;3.60;;
76896;SDS011;65856;52.178;21.176;2022-12-29T03:47:37;9.60;;;4.70;;
76896;SDS011;65856;52.178;21.176;2022-12-29T03:50:07;8.60;;;4.00;;
76896;SDS011;65856;52.178;21.176;2022-12-29T03:52:38;10.00;;;4.10;;
76896;SDS011;65856;52.178;21.176;2022-12-29T03:55:08;7.50;;;3.60;;
76896;SDS011;65856;52.178;21.176;2022-12-29T03:57:36;7.70;;;3.60;;
76896;SDS011;65856;52.178;21.176;2022-12-29T04:00:07;9.10;;;3.90;;
76896;SDS011;65856;52.178;21.176;2022-12-29T04:02:36;8.90;;;3.70;;
76896;SDS011;65856;52.178;21.176;2022-12-29T04:05:06;12.40;;;4.60;;
76896;SDS011;65856;52.178;21.176;2022-12-29T04:07:35;9.60;;;4.50;;
76896;SDS011;65856;52.178;21.176;2022-12-29T04:10:03;7.10;;;3.70;;
76896;SDS011;65856;52.178;21.176;2022-12-29T04:12:32;10.20;;;4.90;;
76896;SDS011;65856;52.178;21.176;2022-12-29T04:15:01;12.60;;;5.10;;
76896;SDS011;65856;52.178;21.176;2022-12-29T04:17:29;7.90;;;3.80;;
76896;SDS011;65856;52.178;21.176;2022-12-29T04:19:57;10.60;;;4.60;;
76896;SDS011;65856;52.178;21.176;2022-12-29T04:22:40;8.50;;;4.40;;
76896;SDS011;65856;52.178;21.176;2022-12-29T04:25:09;10.10;;;4.70;;
76896;SDS011;65856;52.178;21.176;2022-12-29T04:27:37;12.10;;;4.90;;
76896;SDS011;65856;52.178;21.176;2022-12-29T04:30:07;11.20;;;4.60;;
76896;SDS011;65856;52.178;21.176;2022-12-29T04:35:06;11.50;;;4.60;;
76896;SDS011;65856;52.178;21.176;2022-12-29T04:37:35;12.60;;;5.10;;
76896;SDS011;65856;52.178;21.176;2022-12-29T04:40:04;11.70;;;5.10;;
76896;SDS011;65856;52.178;21.176;2022-12-29T04:42:33;12.10;;;5.20;;
76896;SDS011;65856;52.178;21.176;2022-12-29T04:45:01;9.90;;;5.30;;
76896;SDS011;65856;52.178;21.176;2022-12-29T04:47:30;10.50;;;5.00;;
76896;SDS011;65856;52.178;21.176;2022-12-29T04:49:58;9.90;;;4.40;;
76896;SDS011;65856;52.178;21.176;2022-12-29T04:52:26;10.50;;;4.40;;
76896;SDS011;65856;52.178;21.176;2022-12-29T04:54:54;10.80;;;5.00;;
76896;SDS011;65856;52.178;21.176;2022-12-29T04:57:23;12.20;;;5.50;;
76896;SDS011;65856;52.178;21.176;2022-12-29T04:59:51;9.80;;;4.80;;
76896;SDS011;65856;52.178;21.176;2022-12-29T05:02:19;8.20;;;4.50;;
76896;SDS011;65856;52.178;21.176;2022-12-29T05:04:47;10.50;;;5.00;;
76896;SDS011;65856;52.178;21.176;2022-12-29T05:07:16;8.60;;;3.90;;
76896;SDS011;65856;52.178;21.176;2022-12-29T05:09:44;11.80;;;4.70;;
76896;SDS011;65856;52.178;21.176;2022-12-29T05:12:12;14.00;;;5.40;;
76896;SDS011;65856;52.178;21.176;2022-12-29T05:14:40;10.30;;;4.60;;
76896;SDS011;65856;52.178;21.176;2022-12-29T05:17:09;9.90;;;5.10;;
76896;SDS011;65856;52.178;21.176;2022-12-29T05:19:37;8.10;;;4.20;;
76896;SDS011;65856;52.178;21.176;2022-12-29T05:22:06;13.60;;;4.70;;
76896;SDS011;65856;52.178;21.176;2022-12-29T05:24:34;10.60;;;4.80;;
76896;SDS011;65856;52.178;21.176;2022-12-29T05:27:03;11.20;;;5.00;;
76896;SDS011;65856;52.178;21.176;2022-12-29T05:29:31;10.80;;;4.90;;
76896;SDS011;65856;52.178;21.176;2022-12-29T05:31:59;10.20;;;4.50;;
76896;SDS011;65856;52.178;21.176;2022-12-29T05:34:28;10.80;;;5.10;;
76896;SDS011;65856;52.178;21.176;2022-12-29T05:36:56;10.50;;;4.90;;
76896;SDS011;65856;52.178;21.176;2022-12-29T05:39:24;13.00;;;5.20;;
76896;SDS011;65856;52.178;21.176;2022-12-29T05:41:52;9.30;;;4.00;;
76896;SDS011;65856;52.178;21.176;2022-12-29T05:44:21;11.60;;;4.90;;
76896;SDS011;65856;52.178;21.176;2022-12-29T05:46:49;12.10;;;5.00;;
76896;SDS011;65856;52.178;21.176;2022-12-29T05:49:17;9.50;;;4.30;;
76896;SDS011;65856;52.178;21.176;2022-12-29T05:51:46;10.40;;;4.70;;
76896;SDS011;65856;52.178;21.176;2022-12-29T05:54:14;10.80;;;4.70;;
76896;SDS011;65856;52.178;21.176;2022-12-29T05:56:43;10.80;;;4.60;;
76896;SDS011;65856;52.178;21.176;2022-12-29T05:59:11;10.40;;;4.80;;
76896;SDS011;65856;52.178;21.176;2022-12-29T06:01:40;10.70;;;4.60;;
76896;SDS011;65856;52.178;21.176;2022-12-29T06:04:08;10.40;;;5.00;;
76896;SDS011;65856;52.178;21.176;2022-12-29T06:06:37;8.50;;;4.00;;
76896;SDS011;65856;52.178;21.176;2022-12-29T06:09:06;10.00;;;4.50;;
76896;SDS011;65856;52.178;21.176;2022-12-29T06:11:37;9.50;;;4.10;;
76896;SDS011;65856;52.178;21.176;2022-12-29T06:14:05;10.30;;;4.70;;
76896;SDS011;65856;52.178;21.176;2022-12-29T06:16:34;11.00;;;5.00;;
76896;SDS011;65856;52.178;21.176;2022-12-29T06:19:03;10.40;;;4.80;;
76896;SDS011;65856;52.178;21.176;2022-12-29T06:21:31;10.20;;;4.80;;
76896;SDS011;65856;52.178;21.176;2022-12-29T06:24:00;9.20;;;4.70;;
76896;SDS011;65856;52.178;21.176;2022-12-29T06:26:28;10.40;;;4.60;;
76896;SDS011;65856;52.178;21.176;2022-12-29T06:28:56;10.50;;;4.50;;
76896;SDS011;65856;52.178;21.176;2022-12-29T06:31:25;12.50;;;5.20;;
76896;SDS011;65856;52.178;21.176;2022-12-29T06:33:53;9.20;;;4.60;;
76896;SDS011;65856;52.178;21.176;2022-12-29T06:36:22;10.20;;;4.20;;
76896;SDS011;65856;52.178;21.176;2022-12-29T06:38:50;10.60;;;5.00;;
76896;SDS011;65856;52.178;21.176;2022-12-29T06:41:19;10.40;;;4.80;;
76896;SDS011;65856;52.178;21.176;2022-12-29T06:43:48;12.60;;;5.60;;
76896;SDS011;65856;52.178;21.176;2022-12-29T06:46:17;10.10;;;4.30;;
76896;SDS011;65856;52.178;21.176;2022-12-29T06:48:45;10.70;;;5.00;;
76896;SDS011;65856;52.178;21.176;2022-12-29T06:51:14;8.60;;;4.30;;
76896;SDS011;65856;52.178;21.176;2022-12-29T06:53:42;10.40;;;4.60;;
76896;SDS011;65856;52.178;21.176;2022-12-29T06:56:11;8.90;;;4.50;;
76896;SDS011;65856;52.178;21.176;2022-12-29T06:58:39;10.30;;;4.30;;
76896;SDS011;65856;52.178;21.176;2022-12-29T07:01:08;7.80;;;4.30;;
76896;SDS011;65856;52.178;21.176;2022-12-29T07:03:36;11.10;;;5.10;;
76896;SDS011;65856;52.178;21.176;2022-12-29T07:06:05;11.10;;;5.30;;
76896;SDS011;65856;52.178;21.176;2022-12-29T07:08:34;12.00;;;5.70;;
76896;SDS011;65856;52.178;21.176;2022-12-29T07:11:03;13.00;;;5.80;;
76896;SDS011;65856;52.178;21.176;2022-12-29T07:13:31;14.30;;;5.70;;
76896;SDS011;65856;52.178;21.176;2022-12-29T07:16:04;10.60;;;5.00;;
76896;SDS011;65856;52.178;21.176;2022-12-29T07:18:33;12.60;;;5.20;;
76896;SDS011;65856;52.178;21.176;2022-12-29T07:21:02;11.90;;;5.10;;
76896;SDS011;65856;52.178;21.176;2022-12-29T07:23:31;10.10;;;5.10;;
76896;SDS011;65856;52.178;21.176;2022-12-29T07:26:04;11.40;;;5.60;;
76896;SDS011;65856;52.178;21.176;2022-12-29T07:28:36;9.30;;;4.10;;
76896;SDS011;65856;52.178;21.176;2022-12-29T07:31:08;10.60;;;4.90;;
76896;SDS011;65856;52.178;21.176;2022-12-29T07:33:42;10.40;;;4.90;;
76896;SDS011;65856;52.178;21.176;2022-12-29T07:36:11;9.60;;;5.00;;
76896;SDS011;65856;52.178;21.176;2022-12-29T07:38:40;10.00;;;4.50;;
76896;SDS011;65856;52.178;21.176;2022-12-29T07:41:09;11.10;;;5.30;;
76896;SDS011;65856;52.178;21.176;2022-12-29T07:43:38;10.30;;;5.20;;
76896;SDS011;65856;52.178;21.176;2022-12-29T07:46:06;11.90;;;5.00;;
76896;SDS011;65856;52.178;21.176;2022-12-29T07:48:36;8.60;;;4.20;;
76896;SDS011;65856;52.178;21.176;2022-12-29T07:51:05;9.80;;;4.30;;
76896;SDS011;65856;52.178;21.176;2022-12-29T07:53:34;10.00;;;4.50;;
76896;SDS011;65856;52.178;21.176;2022-12-29T07:56:02;9.30;;;4.30;;
76896;SDS011;65856;52.178;21.176;2022-12-29T07:58:31;10.20;;;4.50;;
76896;SDS011;65856;52.178;21.176;2022-12-29T08:00:59;11.30;;;4.60;;
76896;SDS011;65856;52.178;21.176;2022-12-29T08:03:27;7.50;;;4.00;;
76896;SDS011;65856;52.178;21.176;2022-12-29T08:05:57;7.90;;;4.00;;
76896;SDS011;65856;52.178;21.176;2022-12-29T08:08:25;9.40;;;4.10;;
76896;SDS011;65856;52.178;21.176;2022-12-29T08:10:53;11.70;;;4.40;;
76896;SDS011;65856;52.178;21.176;2022-12-29T08:13:21;8.40;;;4.20;;
76896;SDS011;65856;52.178;21.176;2022-12-29T08:15:49;9.30;;;3.60;;
76896;SDS011;65856;52.178;21.176;2022-12-29T08:18:18;8.80;;;4.30;;
76896;SDS011;65856;52.178;21.176;2022-12-29T08:20:46;8.80;;;3.80;;
76896;SDS011;65856;52.178;21.176;2022-12-29T08:23:14;9.90;;;4.60;;
76896;SDS011;65856;52.178;21.176;2022-12-29T08:25:42;9.70;;;4.70;;
76896;SDS011;65856;52.178;21.176;2022-12-29T08:28:10;10.00;;;4.90;;
76896;SDS011;65856;52.178;21.176;2022-12-29T08:30:39;9.60;;;4.80;;
76896;SDS011;65856;52.178;21.176;2022-12-29T08:33:07;8.10;;;4.30;;
76896;SDS011;65856;52.178;21.176;2022-12-29T08:35:35;10.10;;;4.40;;
76896;SDS011;65856;52.178;21.176;2022-12-29T08:38:03;8.10;;;4.10;;
76896;SDS011;65856;52.178;21.176;2022-12-29T08:40:31;7.40;;;3.90;;
76896;SDS011;65856;52.178;21.176;2022-12-29T08:42:59;11.40;;;3.80;;
76896;SDS011;65856;52.178;21.176;2022-12-29T08:45:27;7.90;;;3.80;;
76896;SDS011;65856;52.178;21.176;2022-12-29T08:47:55;8.70;;;4.00;;
76896;SDS011;65856;52.178;21.176;2022-12-29T08:50:24;6.90;;;3.10;;
76896;SDS011;65856;52.178;21.176;2022-12-29T08:52:52;9.80;;;4.10;;
76896;SDS011;65856;52.178;21.176;2022-12-29T08:55:20;9.50;;;4.40;;
76896;SDS011;65856;52.178;21.176;2022-12-29T08:57:48;8.80;;;4.20;;
76896;SDS011;65856;52.178;21.176;2022-12-29T09:00:17;7.20;;;3.80;;
76896;SDS011;65856;52.178;21.176;2022-12-29T09:02:47;9.50;;;4.00;;
76896;SDS011;65856;52.178;21.176;2022-12-29T09:05:15;10.50;;;3.80;;
76896;SDS011;65856;52.178;21.176;2022-12-29T09:07:43;7.40;;;3.90;;
76896;SDS011;65856;52.178;21.176;2022-12-29T09:10:12;8.60;;;3.80;;
76896;SDS011;65856;52.178;21.176;2022-12-29T09:12:40;8.00;;;3.70;;
76896;SDS011;65856;52.178;21.176;2022-12-29T09:15:09;6.80;;;3.50;;
76896;SDS011;65856;52.178;21.176;2022-12-29T09:17:38;6.50;;;3.80;;
76896;SDS011;65856;52.178;21.176;2022-12-29T09:20:10;7.10;;;3.60;;
76896;SDS011;65856;52.178;21.176;2022-12-29T09:22:39;8.80;;;3.40;;
76896;SDS011;65856;52.178;21.176;2022-12-29T09:25:09;6.10;;;3.60;;
76896;SDS011;65856;52.178;21.176;2022-12-29T09:27:38;8.40;;;3.90;;
76896;SDS011;65856;52.178;21.176;2022-12-29T09:30:10;8.20;;;3.60;;
76896;SDS011;65856;52.178;21.176;2022-12-29T09:32:41;10.20;;;4.00;;
76896;SDS011;65856;52.178;21.176;2022-12-29T09:35:09;6.20;;;3.90;;
76896;SDS011;65856;52.178;21.176;2022-12-29T09:37:37;7.20;;;3.80;;
76896;SDS011;65856;52.178;21.176;2022-12-29T09:40:09;8.30;;;3.70;;
76896;SDS011;65856;52.178;21.176;2022-12-29T09:43:00;9.00;;;3.60;;
76896;SDS011;65856;52.178;21.176;2022-12-29T09:45:43;6.50;;;3.70;;
76896;SDS011;65856;52.178;21.176;2022-12-29T09:48:17;7.00;;;3.70;;
76896;SDS011;65856;52.178;21.176;2022-12-29T09:50:52;6.70;;;3.30;;
76896;SDS011;65856;52.178;21.176;2022-12-29T09:53:28;8.70;;;3.60;;
76896;SDS011;65856;52.178;21.176;2022-12-29T09:56:03;7.90;;;3.60;;
76896;SDS011;65856;52.178;21.176;2022-12-29T09:58:41;7.10;;;3.20;;
76896;SDS011;65856;52.178;21.176;2022-12-29T10:01:21;6.10;;;3.10;;
76896;SDS011;65856;52.178;21.176;2022-12-29T10:03:57;5.60;;;3.30;;
76896;SDS011;65856;52.178;21.176;2022-12-29T10:06:33;6.10;;;3.40;;
76896;SDS011;65856;52.178;21.176;2022-12-29T10:09:13;9.00;;;3.60;;
76896;SDS011;65856;52.178;21.176;2022-12-29T10:12:02;9.80;;;3.80;;
76896;SDS011;65856;52.178;21.176;2022-12-29T10:14:54;6.00;;;3.60;;
76896;SDS011;65856;52.178;21.176;2022-12-29T10:17:37;8.80;;;3.60;;
76896;SDS011;65856;52.178;21.176;2022-12-29T10:20:19;6.00;;;3.40;;
76896;SDS011;65856;52.178;21.176;2022-12-29T10:23:15;6.70;;;3.90;;
76896;SDS011;65856;52.178;21.176;2022-12-29T10:25:54;6.70;;;3.50;;
76896;SDS011;65856;52.178;21.176;2022-12-29T10:28:29;6.90;;;3.50;;
76896;SDS011;65856;52.178;21.176;2022-12-29T10:31:06;7.20;;;3.30;;
76896;SDS011;65856;52.178;21.176;2022-12-29T10:33:42;8.90;;;3.20;;
76896;SDS011;65856;52.178;21.176;2022-12-29T10:36:16;7.00;;;3.70;;
76896;SDS011;65856;52.178;21.176;2022-12-29T10:38:58;7.20;;;3.50;;
76896;SDS011;65856;52.178;21.176;2022-12-29T10:41:38;7.10;;;3.70;;
76896;SDS011;65856;52.178;21.176;2022-12-29T10:44:10;8.80;;;4.00;;
76896;SDS011;65856;52.178;21.176;2022-12-29T10:46:43;7.10;;;3.70;;
76896;SDS011;65856;52.178;21.176;2022-12-29T10:49:17;6.30;;;3.60;;
76896;SDS011;65856;52.178;21.176;2022-12-29T10:51:48;6.50;;;3.70;;
76896;SDS011;65856;52.178;21.176;2022-12-29T10:54:26;8.90;;;3.60;;
76896;SDS011;65856;52.178;21.176;2022-12-29T10:57:02;9.00;;;3.70;;
76896;SDS011;65856;52.178;21.176;2022-12-29T10:59:36;6.70;;;3.40;;
76896;SDS011;65856;52.178;21.176;2022-12-29T11:02:21;6.80;;;3.70;;
76896;SDS011;65856;52.178;21.176;2022-12-29T11:05:12;10.20;;;3.80;;
76896;SDS011;65856;52.178;21.176;2022-12-29T11:07:48;8.40;;;4.00;;
76896;SDS011;65856;52.178;21.176;2022-12-29T11:10:30;8.20;;;4.10;;
76896;SDS011;65856;52.178;21.176;2022-12-29T11:13:12;8.10;;;3.90;;
76896;SDS011;65856;52.178;21.176;2022-12-29T11:15:43;8.00;;;4.00;;
76896;SDS011;65856;52.178;21.176;2022-12-29T11:18:23;8.50;;;4.10;;
76896;SDS011;65856;52.178;21.176;2022-12-29T11:20:54;7.90;;;4.20;;
76896;SDS011;65856;52.178;21.176;2022-12-29T11:23:30;7.30;;;4.00;;
76896;SDS011;65856;52.178;21.176;2022-12-29T11:26:14;8.70;;;4.50;;
76896;SDS011;65856;52.178;21.176;2022-12-29T11:28:47;7.90;;;4.00;;
76896;SDS011;65856;52.178;21.176;2022-12-29T11:31:40;11.90;;;5.50;;
76896;SDS011;65856;52.178;21.176;2022-12-29T11:34:15;9.10;;;5.70;;
76896;SDS011;65856;52.178;21.176;2022-12-29T11:36:45;7.90;;;3.90;;
76896;SDS011;65856;52.178;21.176;2022-12-29T11:39:36;8.30;;;3.90;;
76896;SDS011;65856;52.178;21.176;2022-12-29T11:42:14;8.20;;;4.10;;
76896;SDS011;65856;52.178;21.176;2022-12-29T11:44:45;6.70;;;3.60;;
76896;SDS011;65856;52.178;21.176;2022-12-29T11:47:25;10.00;;;4.30;;
76896;SDS011;65856;52.178;21.176;2022-12-29T11:49:58;7.80;;;3.80;;
76896;SDS011;65856;52.178;21.176;2022-12-29T11:52:30;9.70;;;3.80;;
76896;SDS011;65856;52.178;21.176;2022-12-29T11:55:04;5.70;;;3.40;;
76896;SDS011;65856;52.178;21.176;2022-12-29T11:57:44;5.90;;;3.80;;
76896;SDS011;65856;52.178;21.176;2022-12-29T12:00:17;9.60;;;3.90;;
76896;SDS011;65856;52.178;21.176;2022-12-29T12:02:52;12.40;;;4.30;;
76896;SDS011;65856;52.178;21.176;2022-12-29T12:05:30;8.60;;;3.90;;
76896;SDS011;65856;52.178;21.176;2022-12-29T12:08:09;8.40;;;3.70;;
76896;SDS011;65856;52.178;21.176;2022-12-29T12:10:48;14.00;;;4.30;;
76896;SDS011;65856;52.178;21.176;2022-12-29T12:13:27;8.80;;;4.20;;
76896;SDS011;65856;52.178;21.176;2022-12-29T12:16:06;7.50;;;4.30;;
76896;SDS011;65856;52.178;21.176;2022-12-29T12:18:43;9.70;;;4.80;;
76896;SDS011;65856;52.178;21.176;2022-12-29T12:21:20;10.00;;;4.20;;
76896;SDS011;65856;52.178;21.176;2022-12-29T12:24:00;11.40;;;4.40;;
76896;SDS011;65856;52.178;21.176;2022-12-29T12:26:39;7.30;;;4.30;;
76896;SDS011;65856;52.178;21.176;2022-12-29T12:29:19;7.30;;;4.20;;
76896;SDS011;65856;52.178;21.176;2022-12-29T12:31:55;7.60;;;4.10;;
76896;SDS011;65856;52.178;21.176;2022-12-29T12:34:30;10.10;;;4.30;;
76896;SDS011;65856;52.178;21.176;2022-12-29T12:37:33;9.80;;;4.20;;
76896;SDS011;65856;52.178;21.176;2022-12-29T12:40:34;7.10;;;3.90;;
76896;SDS011;65856;52.178;21.176;2022-12-29T12:43:29;10.50;;;4.00;;
76896;SDS011;65856;52.178;21.176;2022-12-29T12:46:16;7.00;;;4.00;;
76896;SDS011;65856;52.178;21.176;2022-12-29T12:49:07;8.80;;;4.00;;
76896;SDS011;65856;52.178;21.176;2022-12-29T12:51:53;7.80;;;4.20;;
76896;SDS011;65856;52.178;21.176;2022-12-29T12:54:40;11.70;;;4.60;;
76896;SDS011;65856;52.178;21.176;2022-12-29T12:57:31;9.50;;;4.10;;
76896;SDS011;65856;52.178;21.176;2022-12-29T13:00:14;9.20;;;4.60;;
76896;SDS011;65856;52.178;21.176;2022-12-29T13:02:53;9.90;;;4.80;;
76896;SDS011;65856;52.178;21.176;2022-12-29T13:05:50;6.90;;;4.10;;
76896;SDS011;65856;52.178;21.176;2022-12-29T13:12:00;9.60;;;4.20;;
76896;SDS011;65856;52.178;21.176;2022-12-29T13:14:45;12.40;;;4.90;;
76896;SDS011;65856;52.178;21.176;2022-12-29T13:17:28;11.00;;;4.70;;
76896;SDS011;65856;52.178;21.176;2022-12-29T13:20:10;8.80;;;5.10;;
76896;SDS011;65856;52.178;21.176;2022-12-29T13:22:52;9.10;;;4.60;;
76896;SDS011;65856;52.178;21.176;2022-12-29T13:25:33;8.50;;;4.50;;
76896;SDS011;65856;52.178;21.176;2022-12-29T13:28:12;12.40;;;4.40;;
76896;SDS011;65856;52.178;21.176;2022-12-29T13:30:53;12.00;;;4.90;;
76896;SDS011;65856;52.178;21.176;2022-12-29T13:33:30;12.10;;;4.70;;
76896;SDS011;65856;52.178;21.176;2022-12-29T13:36:13;10.90;;;4.90;;
76896;SDS011;65856;52.178;21.176;2022-12-29T13:38:50;12.10;;;5.60;;
76896;SDS011;65856;52.178;21.176;2022-12-29T13:41:32;9.70;;;5.10;;
76896;SDS011;65856;52.178;21.176;2022-12-29T13:44:06;10.60;;;4.50;;
76896;SDS011;65856;52.178;21.176;2022-12-29T13:46:43;9.60;;;4.90;;
76896;SDS011;65856;52.178;21.176;2022-12-29T13:49:16;9.70;;;4.60;;
76896;SDS011;65856;52.178;21.176;2022-12-29T13:51:48;11.40;;;4.60;;
76896;SDS011;65856;52.178;21.176;2022-12-29T13:54:27;9.40;;;5.00;;
76896;SDS011;65856;52.178;21.176;2022-12-29T13:57:08;11.00;;;5.50;;
76896;SDS011;65856;52.178;21.176;2022-12-29T13:59:49;11.00;;;5.00;;
76896;SDS011;65856;52.178;21.176;2022-12-29T14:02:29;9.70;;;5.10;;
76896;SDS011;65856;52.178;21.176;2022-12-29T14:05:28;9.20;;;4.80;;
76896;SDS011;65856;52.178;21.176;2022-12-29T14:08:00;9.10;;;5.30;;
76896;SDS011;65856;52.178;21.176;2022-12-29T14:10:33;10.00;;;4.70;;
76896;SDS011;65856;52.178;21.176;2022-12-29T14:13:06;9.90;;;4.80;;
76896;SDS011;65856;52.178;21.176;2022-12-29T14:15:42;12.30;;;5.30;;
76896;SDS011;65856;52.178;21.176;2022-12-29T14:18:16;9.10;;;4.70;;
76896;SDS011;65856;52.178;21.176;2022-12-29T14:20:57;8.80;;;4.90;;
76896;SDS011;65856;52.178;21.176;2022-12-29T14:23:39;9.20;;;5.20;;
76896;SDS011;65856;52.178;21.176;2022-12-29T14:26:14;8.10;;;4.60;;
76896;SDS011;65856;52.178;21.176;2022-12-29T14:28:45;9.20;;;4.50;;
76896;SDS011;65856;52.178;21.176;2022-12-29T14:31:35;10.20;;;4.50;;
76896;SDS011;65856;52.178;21.176;2022-12-29T14:34:26;9.50;;;4.70;;
76896;SDS011;65856;52.178;21.176;2022-12-29T14:36:58;8.40;;;4.60;;
76896;SDS011;65856;52.178;21.176;2022-12-29T14:39:32;8.70;;;4.30;;
76896;SDS011;65856;52.178;21.176;2022-12-29T14:42:06;10.40;;;5.30;;
76896;SDS011;65856;52.178;21.176;2022-12-29T14:44:48;9.90;;;5.90;;
76896;SDS011;65856;52.178;21.176;2022-12-29T14:47:22;12.40;;;7.00;;
76896;SDS011;65856;52.178;21.176;2022-12-29T14:49:54;34.30;;;17.00;;
76896;SDS011;65856;52.178;21.176;2022-12-29T14:52:24;42.50;;;21.70;;
76896;SDS011;65856;52.178;21.176;2022-12-29T14:54:57;42.90;;;20.60;;
76896;SDS011;65856;52.178;21.176;2022-12-29T14:57:33;53.30;;;23.60;;
76896;SDS011;65856;52.178;21.176;2022-12-29T15:00:18;43.40;;;19.90;;
76896;SDS011;65856;52.178;21.176;2022-12-29T15:02:54;34.20;;;15.40;;
76896;SDS011;65856;52.178;21.176;2022-12-29T15:05:36;42.90;;;18.70;;
76896;SDS011;65856;52.178;21.176;2022-12-29T15:08:09;18.80;;;7.60;;
76896;SDS011;65856;52.178;21.176;2022-12-29T15:10:43;12.90;;;6.10;;
76896;SDS011;65856;52.178;21.176;2022-12-29T15:13:18;11.80;;;6.30;;
76896;SDS011;65856;52.178;21.176;2022-12-29T15:15:50;11.60;;;5.40;;
76896;SDS011;65856;52.178;21.176;2022-12-29T15:18:24;8.50;;;4.80;;
76896;SDS011;65856;52.178;21.176;2022-12-29T15:20:57;12.60;;;6.00;;